sensor_id;sensor_type;location;lat;lon;timestamp;temperature;humidity
24632;DHT22;59977;48.782;9.190;2024-01-15T00:02:17;0.60;99.90
24632;DHT22;59977;48.782;9.190;2024-01-15T00:04:43;0.60;99.90
24632;DHT22;59977;48.782;9.190;2024-01-15T00:07:08;0.60;99.90
24632;DHT22;59977;48.782;9.190;2024-01-15T00:09:35;0.50;99.90
24632;DHT22;59977;48.782;9.190;2024-01-15T00:12:01;0.40;99.90
24632;DHT22;59977;48.782;9.190;2024-01-15T00:14:27;0.40;99.90
24632;DHT22;59977;48.782;9.190;2024-01-15T00:16:53;0.40;99.90
24632;DHT22;59977;48.782;9.190;2024-01-15T00:19:21;0.40;99.90
24632;DHT22;59977;48.782;9.190;2024-01-15T00:21:46;0.30;99.90
24632;DHT22;59977;48.782;9.190;2024-01-15T00:24:12;0.30;99.90
24632;DHT22;59977;48.782;9.190;2024-01-15T00:26:38;0.30;99.90
24632;DHT22;59977;48.782;9.190;2024-01-15T00:29:04;0.30;99.90
24632;DHT22;59977;48.782;9.190;2024-01-15T00:31:29;0.20;99.90
24632;DHT22;59977;48.782;9.190;2024-01-15T00:33:56;0.20;99.90
24632;DHT22;59977;48.782;9.190;2024-01-15T00:36:22;0.20;99.90
24632;DHT22;59977;48.782;9.190;2024-01-15T00:38:48;0.20;99.90
24632;DHT22;59977;48.782;9.190;2024-01-15T00:41:14;0.20;99.90
24632;DHT22;59977;48.782;9.190;2024-01-15T00:43:40;0.20;99.90
24632;DHT22;59977;48.782;9.190;2024-01-15T00:46:05;0.20;99.90
24632;DHT22;59977;48.782;9.190;2024-01-15T00:48:32;0.20;99.90
24632;DHT22;59977;48.782;9.190;2024-01-15T00:50:58;0.20;99.90
24632;DHT22;59977;48.782;9.190;2024-01-15T00:53:23;0.20;99.90
24632;DHT22;59977;48.782;9.190;2024-01-15T00:55:49;0.10;99.90
24632;DHT22;59977;48.782;9.190;2024-01-15T00:58:14;0.20;99.90
24632;DHT22;59977;48.782;9.190;2024-01-15T01:00:41;0.20;99.90
24632;DHT22;59977;48.782;9.190;2024-01-15T01:03:07;0.20;99.90
24632;DHT22;59977;48.782;9.190;2024-01-15T01:05:36;0.30;99.90
24632;DHT22;59977;48.782;9.190;2024-01-15T01:08:01;0.30;99.90
24632;DHT22;59977;48.782;9.190;2024-01-15T01:10:27;0.40;99.90
24632;DHT22;59977;48.782;9.190;2024-01-15T01:12:53;0.40;99.90
24632;DHT22;59977;48.782;9.190;2024-01-15T01:15:18;0.50;99.90
24632;DHT22;59977;48.782;9.190;2024-01-15T01:17:45;0.50;99.90
24632;DHT22;59977;48.782;9.190;2024-01-15T01:20:11;0.50;99.90
24632;DHT22;59977;48.782;9.190;2024-01-15T01:22:37;0.50;99.90
24632;DHT22;59977;48.782;9.190;2024-01-15T01:25:03;0.50;99.90
24632;DHT22;59977;48.782;9.190;2024-01-15T01:27:29;0.60;99.90
24632;DHT22;59977;48.782;9.190;2024-01-15T01:29:54;0.60;99.90
24632;DHT22;59977;48.782;9.190;2024-01-15T01:32:20;0.60;99.90
24632;DHT22;59977;48.782;9.190;2024-01-15T01:34:46;1.20;99.90
24632;DHT22;59977;48.782;9.190;2024-01-15T01:37:11;0.60;99.90
24632;DHT22;59977;48.782;9.190;2024-01-15T01:39:41;0.60;99.90
24632;DHT22;59977;48.782;9.190;2024-01-15T01:42:06;0.70;99.90
24632;DHT22;59977;48.782;9.190;2024-01-15T01:44:32;0.70;99.90
24632;DHT22;59977;48.782;9.190;2024-01-15T01:46:59;0.70;99.90
24632;DHT22;59977;48.782;9.190;2024-01-15T01:49:25;0.70;99.90
24632;DHT22;59977;48.782;9.190;2024-01-15T01:51:51;0.70;99.90
24632;DHT22;59977;48.782;9.190;2024-01-15T01:54:18;0.70;99.90
24632;DHT22;59977;48.782;9.190;2024-01-15T01:56:46;0.70;99.90
24632;DHT22;59977;48.782;9.190;2024-01-15T01:59:12;0.70;99.90
24632;DHT22;59977;48.782;9.190;2024-01-15T02:01:39;0.70;99.90
24632;DHT22;59977;48.782;9.190;2024-01-15T02:04:06;0.70;99.90
24632;DHT22;59977;48.782;9.190;2024-01-15T02:06:31;0.70;99.90
24632;DHT22;59977;48.782;9.190;2024-01-15T02:08:57;0.80;99.90
24632;DHT22;59977;48.782;9.190;2024-01-15T02:11:23;0.70;99.90
24632;DHT22;59977;48.782;9.190;2024-01-15T02:13:48;0.70;99.90
24632;DHT22;59977;48.782;9.190;2024-01-15T02:16:14;0.70;99.90
24632;DHT22;59977;48.782;9.190;2024-01-15T02:18:41;0.70;99.90
24632;DHT22;59977;48.782;9.190;2024-01-15T02:21:07;0.60;99.90
24632;DHT22;59977;48.782;9.190;2024-01-15T02:23:32;0.60;99.90
24632;DHT22;59977;48.782;9.190;2024-01-15T02:25:58;0.60;99.90
24632;DHT22;59977;48.782;9.190;2024-01-15T02:28:24;0.60;99.90
24632;DHT22;59977;48.782;9.190;2024-01-15T02:30:49;0.60;99.90
24632;DHT22;59977;48.782;9.190;2024-01-15T02:33:15;0.60;99.90
24632;DHT22;59977;48.782;9.190;2024-01-15T02:35:41;0.60;99.90
24632;DHT22;59977;48.782;9.190;2024-01-15T02:38:07;0.60;99.90
24632;DHT22;59977;48.782;9.190;2024-01-15T02:40:33;0.50;99.90
24632;DHT22;59977;48.782;9.190;2024-01-15T02:42:59;0.50;99.90
24632;DHT22;59977;48.782;9.190;2024-01-15T02:45:25;0.50;99.90
24632;DHT22;59977;48.782;9.190;2024-01-15T02:47:50;0.40;99.90
24632;DHT22;59977;48.782;9.190;2024-01-15T02:50:16;0.70;99.90
24632;DHT22;59977;48.782;9.190;2024-01-15T02:52:42;0.40;99.90
24632;DHT22;59977;48.782;9.190;2024-01-15T02:55:08;0.40;99.90
24632;DHT22;59977;48.782;9.190;2024-01-15T02:57:33;0.40;99.90
24632;DHT22;59977;48.782;9.190;2024-01-15T02:59:59;0.40;99.90
24632;DHT22;59977;48.782;9.190;2024-01-15T03:02:24;0.40;99.90
24632;DHT22;59977;48.782;9.190;2024-01-15T03:04:50;0.30;99.90
24632;DHT22;59977;48.782;9.190;2024-01-15T03:07:16;0.30;99.90
24632;DHT22;59977;48.782;9.190;2024-01-15T03:09:41;0.30;99.90
24632;DHT22;59977;48.782;9.190;2024-01-15T03:12:07;0.30;99.90
24632;DHT22;59977;48.782;9.190;2024-01-15T03:14:33;0.30;99.90
24632;DHT22;59977;48.782;9.190;2024-01-15T03:16:58;0.30;99.90
24632;DHT22;59977;48.782;9.190;2024-01-15T03:19:26;0.30;99.90
24632;DHT22;59977;48.782;9.190;2024-01-15T03:21:51;0.30;99.90
24632;DHT22;59977;48.782;9.190;2024-01-15T03:24:17;0.30;99.90
24632;DHT22;59977;48.782;9.190;2024-01-15T03:26:42;0.40;99.90
24632;DHT22;59977;48.782;9.190;2024-01-15T03:29:08;0.40;99.90
24632;DHT22;59977;48.782;9.190;2024-01-15T03:31:33;0.40;99.90
24632;DHT22;59977;48.782;9.190;2024-01-15T03:33:59;0.40;99.90
24632;DHT22;59977;48.782;9.190;2024-01-15T03:36:25;0.40;99.90
24632;DHT22;59977;48.782;9.190;2024-01-15T03:38:50;0.40;99.90
24632;DHT22;59977;48.782;9.190;2024-01-15T03:41:16;0.30;99.90
24632;DHT22;59977;48.782;9.190;2024-01-15T03:43:41;0.30;99.90
24632;DHT22;59977;48.782;9.190;2024-01-15T03:46:10;0.30;99.90
24632;DHT22;59977;48.782;9.190;2024-01-15T03:48:39;0.30;99.90
24632;DHT22;59977;48.782;9.190;2024-01-15T03:51:04;0.40;99.90
24632;DHT22;59977;48.782;9.190;2024-01-15T03:53:30;0.40;99.90
24632;DHT22;59977;48.782;9.190;2024-01-15T03:55:56;0.40;99.90
24632;DHT22;59977;48.782;9.190;2024-01-15T03:58:21;0.40;99.90
24632;DHT22;59977;48.782;9.190;2024-01-15T04:00:47;0.50;99.90
24632;DHT22;59977;48.782;9.190;2024-01-15T04:03:13;0.50;99.90
24632;DHT22;59977;48.782;9.190;2024-01-15T04:05:38;0.50;99.90
24632;DHT22;59977;48.782;9.190;2024-01-15T04:08:04;0.50;99.90
24632;DHT22;59977;48.782;9.190;2024-01-15T04:10:30;0.50;99.90
24632;DHT22;59977;48.782;9.190;2024-01-15T04:12:55;0.50;99.90
24632;DHT22;59977;48.782;9.190;2024-01-15T04:15:21;0.60;99.90
24632;DHT22;59977;48.782;9.190;2024-01-15T04:17:47;0.60;99.90
24632;DHT22;59977;48.782;9.190;2024-01-15T04:20:12;0.60;99.90
24632;DHT22;59977;48.782;9.190;2024-01-15T04:22:38;0.70;99.90
24632;DHT22;59977;48.782;9.190;2024-01-15T04:25:04;0.80;99.90
24632;DHT22;59977;48.782;9.190;2024-01-15T04:27:30;0.80;99.90
24632;DHT22;59977;48.782;9.190;2024-01-15T04:29:56;0.90;99.90
24632;DHT22;59977;48.782;9.190;2024-01-15T04:32:21;1.00;99.90
24632;DHT22;59977;48.782;9.190;2024-01-15T04:34:47;1.00;99.90
24632;DHT22;59977;48.782;9.190;2024-01-15T04:37:13;1.70;99.90
24632;DHT22;59977;48.782;9.190;2024-01-15T04:39:39;1.10;99.90
24632;DHT22;59977;48.782;9.190;2024-01-15T04:42:05;1.10;99.90
24632;DHT22;59977;48.782;9.190;2024-01-15T04:44:30;1.10;99.90
24632;DHT22;59977;48.782;9.190;2024-01-15T04:46:56;1.20;99.90
24632;DHT22;59977;48.782;9.190;2024-01-15T04:49:21;1.20;99.90
24632;DHT22;59977;48.782;9.190;2024-01-15T04:51:47;1.20;99.90
24632;DHT22;59977;48.782;9.190;2024-01-15T04:54:12;1.20;99.90
24632;DHT22;59977;48.782;9.190;2024-01-15T04:56:43;1.20;99.90
24632;DHT22;59977;48.782;9.190;2024-01-15T04:59:08;1.30;99.90
24632;DHT22;59977;48.782;9.190;2024-01-15T05:01:34;1.30;99.90
24632;DHT22;59977;48.782;9.190;2024-01-15T05:04:00;1.20;99.90
24632;DHT22;59977;48.782;9.190;2024-01-15T05:06:25;1.30;99.90
24632;DHT22;59977;48.782;9.190;2024-01-15T05:08:51;1.30;99.90
24632;DHT22;59977;48.782;9.190;2024-01-15T05:11:16;1.30;99.90
24632;DHT22;59977;48.782;9.190;2024-01-15T05:13:42;1.30;99.90
24632;DHT22;59977;48.782;9.190;2024-01-15T05:16:08;1.30;99.90
24632;DHT22;59977;48.782;9.190;2024-01-15T05:18:34;1.30;99.90
24632;DHT22;59977;48.782;9.190;2024-01-15T05:20:59;1.30;99.90
24632;DHT22;59977;48.782;9.190;2024-01-15T05:23:25;1.30;99.90
24632;DHT22;59977;48.782;9.190;2024-01-15T05:25:50;1.30;99.90
24632;DHT22;59977;48.782;9.190;2024-01-15T05:28:16;1.30;99.90
24632;DHT22;59977;48.782;9.190;2024-01-15T05:30:42;1.30;99.90
24632;DHT22;59977;48.782;9.190;2024-01-15T05:33:07;1.30;99.90
24632;DHT22;59977;48.782;9.190;2024-01-15T05:35:34;1.30;99.90
24632;DHT22;59977;48.782;9.190;2024-01-15T05:37:59;1.30;99.90
24632;DHT22;59977;48.782;9.190;2024-01-15T05:40:25;1.30;99.90
24632;DHT22;59977;48.782;9.190;2024-01-15T05:42:50;1.30;99.90
24632;DHT22;59977;48.782;9.190;2024-01-15T05:45:16;1.30;99.90
24632;DHT22;59977;48.782;9.190;2024-01-15T05:47:42;1.30;99.90
24632;DHT22;59977;48.782;9.190;2024-01-15T05:50:09;1.30;99.90
24632;DHT22;59977;48.782;9.190;2024-01-15T05:52:35;1.40;99.90
24632;DHT22;59977;48.782;9.190;2024-01-15T05:55:01;1.40;99.90
24632;DHT22;59977;48.782;9.190;2024-01-15T05:57:27;1.40;99.90
24632;DHT22;59977;48.782;9.190;2024-01-15T05:59:53;1.40;99.90
24632;DHT22;59977;48.782;9.190;2024-01-15T06:02:18;1.40;99.90
24632;DHT22;59977;48.782;9.190;2024-01-15T06:04:44;1.60;99.90
24632;DHT22;59977;48.782;9.190;2024-01-15T06:07:10;1.40;99.90
24632;DHT22;59977;48.782;9.190;2024-01-15T06:09:35;1.40;99.90
24632;DHT22;59977;48.782;9.190;2024-01-15T06:12:01;1.40;99.90
24632;DHT22;59977;48.782;9.190;2024-01-15T06:14:26;1.40;99.90
24632;DHT22;59977;48.782;9.190;2024-01-15T06:16:52;1.40;99.90
24632;DHT22;59977;48.782;9.190;2024-01-15T06:19:18;1.40;99.90
24632;DHT22;59977;48.782;9.190;2024-01-15T06:21:43;1.40;99.90
24632;DHT22;59977;48.782;9.190;2024-01-15T06:24:09;1.40;99.90
24632;DHT22;59977;48.782;9.190;2024-01-15T06:26:35;1.40;99.90
24632;DHT22;59977;48.782;9.190;2024-01-15T06:29:01;1.40;99.90
24632;DHT22;59977;48.782;9.190;2024-01-15T06:31:28;1.40;99.90
24632;DHT22;59977;48.782;9.190;2024-01-15T06:33:54;1.40;99.90
24632;DHT22;59977;48.782;9.190;2024-01-15T06:36:23;1.40;99.90
24632;DHT22;59977;48.782;9.190;2024-01-15T06:38:48;1.40;99.90
24632;DHT22;59977;48.782;9.190;2024-01-15T06:41:14;1.40;99.90
24632;DHT22;59977;48.782;9.190;2024-01-15T06:43:40;1.40;99.90
24632;DHT22;59977;48.782;9.190;2024-01-15T06:46:05;1.40;99.90
24632;DHT22;59977;48.782;9.190;2024-01-15T06:48:31;1.40;99.90
24632;DHT22;59977;48.782;9.190;2024-01-15T06:50:56;1.40;99.90
24632;DHT22;59977;48.782;9.190;2024-01-15T06:53:22;1.40;99.90
24632;DHT22;59977;48.782;9.190;2024-01-15T06:55:48;1.40;99.90
24632;DHT22;59977;48.782;9.190;2024-01-15T06:58:14;1.40;99.90
24632;DHT22;59977;48.782;9.190;2024-01-15T07:00:40;1.40;99.90
24632;DHT22;59977;48.782;9.190;2024-01-15T07:03:06;1.40;99.90
24632;DHT22;59977;48.782;9.190;2024-01-15T07:05:32;1.40;99.90
24632;DHT22;59977;48.782;9.190;2024-01-15T07:07:57;1.40;99.90
24632;DHT22;59977;48.782;9.190;2024-01-15T07:10:23;1.50;99.90
24632;DHT22;59977;48.782;9.190;2024-01-15T07:12:49;1.60;99.90
24632;DHT22;59977;48.782;9.190;2024-01-15T07:15:15;1.50;99.90
24632;DHT22;59977;48.782;9.190;2024-01-15T07:17:41;1.50;99.90
24632;DHT22;59977;48.782;9.190;2024-01-15T07:20:08;1.60;99.90
24632;DHT22;59977;48.782;9.190;2024-01-15T07:22:35;1.50;99.90
24632;DHT22;59977;48.782;9.190;2024-01-15T07:25:01;1.60;99.90
24632;DHT22;59977;48.782;9.190;2024-01-15T07:27:27;1.50;99.90
24632;DHT22;59977;48.782;9.190;2024-01-15T07:29:52;1.60;99.90
24632;DHT22;59977;48.782;9.190;2024-01-15T07:32:18;1.60;99.90
24632;DHT22;59977;48.782;9.190;2024-01-15T07:34:44;1.60;99.90
24632;DHT22;59977;48.782;9.190;2024-01-15T07:37:09;1.60;99.90
24632;DHT22;59977;48.782;9.190;2024-01-15T07:39:35;1.60;99.90
24632;DHT22;59977;48.782;9.190;2024-01-15T07:42:01;1.60;99.90
24632;DHT22;59977;48.782;9.190;2024-01-15T07:44:26;1.60;99.90
24632;DHT22;59977;48.782;9.190;2024-01-15T07:46:52;1.60;99.90
24632;DHT22;59977;48.782;9.190;2024-01-15T07:49:17;1.60;99.90
24632;DHT22;59977;48.782;9.190;2024-01-15T07:51:43;1.60;99.90
24632;DHT22;59977;48.782;9.190;2024-01-15T07:54:09;1.60;99.90
24632;DHT22;59977;48.782;9.190;2024-01-15T07:56:53;1.60;99.90
24632;DHT22;59977;48.782;9.190;2024-01-15T07:59:19;1.70;99.90
24632;DHT22;59977;48.782;9.190;2024-01-15T08:01:44;1.70;99.90
24632;DHT22;59977;48.782;9.190;2024-01-15T08:04:10;1.80;99.90
24632;DHT22;59977;48.782;9.190;2024-01-15T08:06:38;1.80;99.90
24632;DHT22;59977;48.782;9.190;2024-01-15T08:09:04;1.80;99.90
24632;DHT22;59977;48.782;9.190;2024-01-15T08:11:29;1.80;99.90
24632;DHT22;59977;48.782;9.190;2024-01-15T08:13:56;1.80;99.90
24632;DHT22;59977;48.782;9.190;2024-01-15T08:16:21;1.90;99.90
24632;DHT22;59977;48.782;9.190;2024-01-15T08:18:47;1.90;99.90
24632;DHT22;59977;48.782;9.190;2024-01-15T08:21:13;2.10;99.90
24632;DHT22;59977;48.782;9.190;2024-01-15T08:23:38;1.90;99.90
24632;DHT22;59977;48.782;9.190;2024-01-15T08:26:04;2.00;99.90
24632;DHT22;59977;48.782;9.190;2024-01-15T08:28:30;2.10;99.90
24632;DHT22;59977;48.782;9.190;2024-01-15T08:30:56;2.00;99.90
24632;DHT22;59977;48.782;9.190;2024-01-15T08:33:21;2.00;99.90
24632;DHT22;59977;48.782;9.190;2024-01-15T08:35:47;2.00;99.90
24632;DHT22;59977;48.782;9.190;2024-01-15T08:38:13;2.10;99.90
24632;DHT22;59977;48.782;9.190;2024-01-15T08:40:39;2.10;99.90
24632;DHT22;59977;48.782;9.190;2024-01-15T08:43:04;2.10;99.90
24632;DHT22;59977;48.782;9.190;2024-01-15T08:45:32;2.10;99.90
24632;DHT22;59977;48.782;9.190;2024-01-15T08:47:59;2.20;99.90
24632;DHT22;59977;48.782;9.190;2024-01-15T08:50:25;2.20;99.90
24632;DHT22;59977;48.782;9.190;2024-01-15T08:52:50;3.00;99.90
24632;DHT22;59977;48.782;9.190;2024-01-15T08:55:16;2.20;99.90
24632;DHT22;59977;48.782;9.190;2024-01-15T08:57:42;2.30;99.90
24632;DHT22;59977;48.782;9.190;2024-01-15T09:00:09;2.30;99.90
24632;DHT22;59977;48.782;9.190;2024-01-15T09:02:34;2.30;99.90
24632;DHT22;59977;48.782;9.190;2024-01-15T09:05:01;2.30;99.90
24632;DHT22;59977;48.782;9.190;2024-01-15T09:07:27;2.40;99.90
24632;DHT22;59977;48.782;9.190;2024-01-15T09:09:53;2.40;99.90
24632;DHT22;59977;48.782;9.190;2024-01-15T09:12:19;2.40;99.90
24632;DHT22;59977;48.782;9.190;2024-01-15T09:14:46;2.40;99.90
24632;DHT22;59977;48.782;9.190;2024-01-15T09:17:15;2.50;99.90
24632;DHT22;59977;48.782;9.190;2024-01-15T09:19:41;2.50;99.90
24632;DHT22;59977;48.782;9.190;2024-01-15T09:22:07;2.50;99.90
24632;DHT22;59977;48.782;9.190;2024-01-15T09:24:33;2.50;99.90
24632;DHT22;59977;48.782;9.190;2024-01-15T09:26:58;2.60;99.90
24632;DHT22;59977;48.782;9.190;2024-01-15T09:29:24;2.60;99.90
24632;DHT22;59977;48.782;9.190;2024-01-15T09:31:50;2.50;99.90
24632;DHT22;59977;48.782;9.190;2024-01-15T09:34:16;2.60;99.90
24632;DHT22;59977;48.782;9.190;2024-01-15T09:36:42;2.60;99.90
24632;DHT22;59977;48.782;9.190;2024-01-15T09:39:08;2.60;99.90
24632;DHT22;59977;48.782;9.190;2024-01-15T09:41:35;2.70;99.90
24632;DHT22;59977;48.782;9.190;2024-01-15T09:44:05;2.70;99.90
24632;DHT22;59977;48.782;9.190;2024-01-15T09:46:31;2.80;99.90
24632;DHT22;59977;48.782;9.190;2024-01-15T09:48:58;2.80;99.90
24632;DHT22;59977;48.782;9.190;2024-01-15T09:51:24;2.80;99.90
24632;DHT22;59977;48.782;9.190;2024-01-15T09:53:50;2.80;99.90
24632;DHT22;59977;48.782;9.190;2024-01-15T09:56:16;2.80;99.90
24632;DHT22;59977;48.782;9.190;2024-01-15T09:58:42;2.80;99.90
24632;DHT22;59977;48.782;9.190;2024-01-15T10:01:08;2.80;99.90
24632;DHT22;59977;48.782;9.190;2024-01-15T10:03:37;2.80;99.90
24632;DHT22;59977;48.782;9.190;2024-01-15T10:06:03;2.80;99.90
24632;DHT22;59977;48.782;9.190;2024-01-15T10:08:30;2.80;99.90
24632;DHT22;59977;48.782;9.190;2024-01-15T10:10:55;2.80;99.90
24632;DHT22;59977;48.782;9.190;2024-01-15T10:13:21;2.90;99.90
24632;DHT22;59977;48.782;9.190;2024-01-15T10:15:47;2.90;99.90
24632;DHT22;59977;48.782;9.190;2024-01-15T10:18:13;2.90;99.90
24632;DHT22;59977;48.782;9.190;2024-01-15T10:20:39;2.90;99.90
24632;DHT22;59977;48.782;9.190;2024-01-15T10:23:05;3.00;99.90
24632;DHT22;59977;48.782;9.190;2024-01-15T10:25:31;3.00;99.90
24632;DHT22;59977;48.782;9.190;2024-01-15T10:28:03;3.00;99.90
24632;DHT22;59977;48.782;9.190;2024-01-15T10:30:30;3.00;99.90
24632;DHT22;59977;48.782;9.190;2024-01-15T10:33:02;3.10;99.90
24632;DHT22;59977;48.782;9.190;2024-01-15T10:35:35;3.10;99.90
24632;DHT22;59977;48.782;9.190;2024-01-15T10:38:01;3.00;99.90
24632;DHT22;59977;48.782;9.190;2024-01-15T10:40:28;3.20;99.90
24632;DHT22;59977;48.782;9.190;2024-01-15T10:42:54;3.10;99.90
24632;DHT22;59977;48.782;9.190;2024-01-15T10:45:19;3.10;99.90
24632;DHT22;59977;48.782;9.190;2024-01-15T10:47:45;3.10;99.90
24632;DHT22;59977;48.782;9.190;2024-01-15T10:50:12;3.10;99.90
24632;DHT22;59977;48.782;9.190;2024-01-15T10:52:39;3.10;99.90
24632;DHT22;59977;48.782;9.190;2024-01-15T10:55:09;3.20;99.90
24632;DHT22;59977;48.782;9.190;2024-01-15T10:57:38;3.20;99.90
24632;DHT22;59977;48.782;9.190;2024-01-15T11:00:05;3.30;99.90
24632;DHT22;59977;48.782;9.190;2024-01-15T11:02:36;3.30;99.90
24632;DHT22;59977;48.782;9.190;2024-01-15T11:05:02;3.30;99.90
24632;DHT22;59977;48.782;9.190;2024-01-15T11:07:30;3.30;99.90
24632;DHT22;59977;48.782;9.190;2024-01-15T11:09:56;3.40;99.90
24632;DHT22;59977;48.782;9.190;2024-01-15T11:12:24;3.40;99.90
24632;DHT22;59977;48.782;9.190;2024-01-15T11:14:50;3.40;99.90
24632;DHT22;59977;48.782;9.190;2024-01-15T11:17:17;3.30;99.90
24632;DHT22;59977;48.782;9.190;2024-01-15T11:19:45;3.30;99.90
24632;DHT22;59977;48.782;9.190;2024-01-15T11:25:12;3.20;99.90
24632;DHT22;59977;48.782;9.190;2024-01-15T11:30:11;3.10;99.90
24632;DHT22;59977;48.782;9.190;2024-01-15T11:32:38;3.10;99.90
24632;DHT22;59977;48.782;9.190;2024-01-15T11:35:07;3.20;99.90
24632;DHT22;59977;48.782;9.190;2024-01-15T11:40:40;3.30;99.90
24632;DHT22;59977;48.782;9.190;2024-01-15T11:43:08;3.30;99.90
24632;DHT22;59977;48.782;9.190;2024-01-15T11:45:35;3.30;99.90
24632;DHT22;59977;48.782;9.190;2024-01-15T11:48:13;3.30;99.90
24632;DHT22;59977;48.782;9.190;2024-01-15T11:50:47;3.20;99.90
24632;DHT22;59977;48.782;9.190;2024-01-15T11:53:29;3.20;99.90
24632;DHT22;59977;48.782;9.190;2024-01-15T11:55:58;3.10;99.90
24632;DHT22;59977;48.782;9.190;2024-01-15T11:58:25;3.00;99.90
24632;DHT22;59977;48.782;9.190;2024-01-15T12:00:51;3.00;99.90
24632;DHT22;59977;48.782;9.190;2024-01-15T12:03:20;3.00;99.90
24632;DHT22;59977;48.782;9.190;2024-01-15T12:05:45;3.00;99.90
24632;DHT22;59977;48.782;9.190;2024-01-15T12:08:11;3.20;99.90
24632;DHT22;59977;48.782;9.190;2024-01-15T12:10:41;3.00;99.90
24632;DHT22;59977;48.782;9.190;2024-01-15T12:13:13;3.00;99.90
24632;DHT22;59977;48.782;9.190;2024-01-15T12:15:40;3.10;99.90
24632;DHT22;59977;48.782;9.190;2024-01-15T12:18:12;3.10;99.90
24632;DHT22;59977;48.782;9.190;2024-01-15T12:20:37;3.20;99.90
24632;DHT22;59977;48.782;9.190;2024-01-15T12:23:03;3.10;99.90
24632;DHT22;59977;48.782;9.190;2024-01-15T12:25:30;3.10;99.90
24632;DHT22;59977;48.782;9.190;2024-01-15T12:27:56;3.00;99.90
24632;DHT22;59977;48.782;9.190;2024-01-15T12:30:22;2.90;99.90
24632;DHT22;59977;48.782;9.190;2024-01-15T12:32:48;2.80;99.90
24632;DHT22;59977;48.782;9.190;2024-01-15T12:35:14;2.80;99.90
24632;DHT22;59977;48.782;9.190;2024-01-15T12:37:41;2.80;99.90
24632;DHT22;59977;48.782;9.190;2024-01-15T12:40:08;2.80;99.90
24632;DHT22;59977;48.782;9.190;2024-01-15T12:42:41;2.70;99.90
24632;DHT22;59977;48.782;9.190;2024-01-15T12:45:08;2.70;99.90
24632;DHT22;59977;48.782;9.190;2024-01-15T12:47:34;2.60;99.90
24632;DHT22;59977;48.782;9.190;2024-01-15T12:50:00;2.50;99.90
24632;DHT22;59977;48.782;9.190;2024-01-15T12:52:29;2.50;99.90
24632;DHT22;59977;48.782;9.190;2024-01-15T12:54:55;2.50;99.90
24632;DHT22;59977;48.782;9.190;2024-01-15T12:57:21;2.40;99.90
24632;DHT22;59977;48.782;9.190;2024-01-15T12:59:46;2.40;99.90
24632;DHT22;59977;48.782;9.190;2024-01-15T13:02:15;2.40;99.90
24632;DHT22;59977;48.782;9.190;2024-01-15T13:04:44;2.50;99.90
24632;DHT22;59977;48.782;9.190;2024-01-15T13:07:09;2.50;99.90
24632;DHT22;59977;48.782;9.190;2024-01-15T13:09:35;2.50;99.90
24632;DHT22;59977;48.782;9.190;2024-01-15T13:12:02;2.60;99.90
24632;DHT22;59977;48.782;9.190;2024-01-15T13:14:28;2.60;99.90
24632;DHT22;59977;48.782;9.190;2024-01-15T13:16:54;2.60;99.90
24632;DHT22;59977;48.782;9.190;2024-01-15T13:19:20;2.50;99.90
24632;DHT22;59977;48.782;9.190;2024-01-15T13:21:49;2.50;99.90
24632;DHT22;59977;48.782;9.190;2024-01-15T13:24:17;2.50;99.90
24632;DHT22;59977;48.782;9.190;2024-01-15T13:26:42;2.50;99.90
24632;DHT22;59977;48.782;9.190;2024-01-15T13:29:08;2.50;99.90
24632;DHT22;59977;48.782;9.190;2024-01-15T13:31:34;3.10;99.90
24632;DHT22;59977;48.782;9.190;2024-01-15T13:33:59;2.40;99.90
24632;DHT22;59977;48.782;9.190;2024-01-15T13:36:26;2.40;99.90
24632;DHT22;59977;48.782;9.190;2024-01-15T13:38:52;2.40;99.90
24632;DHT22;59977;48.782;9.190;2024-01-15T13:41:19;2.50;99.90
24632;DHT22;59977;48.782;9.190;2024-01-15T13:43:49;2.50;99.90
24632;DHT22;59977;48.782;9.190;2024-01-15T13:46:16;2.40;99.90
24632;DHT22;59977;48.782;9.190;2024-01-15T13:48:43;2.40;99.90
24632;DHT22;59977;48.782;9.190;2024-01-15T13:51:08;2.40;99.90
24632;DHT22;59977;48.782;9.190;2024-01-15T13:53:34;2.40;99.90
24632;DHT22;59977;48.782;9.190;2024-01-15T13:56:00;2.50;99.90
24632;DHT22;59977;48.782;9.190;2024-01-15T13:58:26;1.70;99.90
24632;DHT22;59977;48.782;9.190;2024-01-15T14:00:52;2.40;99.90
24632;DHT22;59977;48.782;9.190;2024-01-15T14:03:17;2.40;99.90
24632;DHT22;59977;48.782;9.190;2024-01-15T14:05:44;2.40;99.90
24632;DHT22;59977;48.782;9.190;2024-01-15T14:08:10;2.40;99.90
24632;DHT22;59977;48.782;9.190;2024-01-15T14:10:36;2.40;99.90
24632;DHT22;59977;48.782;9.190;2024-01-15T14:13:02;2.50;99.90
24632;DHT22;59977;48.782;9.190;2024-01-15T14:15:28;2.40;99.90
24632;DHT22;59977;48.782;9.190;2024-01-15T14:17:54;2.50;99.90
24632;DHT22;59977;48.782;9.190;2024-01-15T14:20:20;2.60;99.90
24632;DHT22;59977;48.782;9.190;2024-01-15T14:22:45;2.60;99.90
24632;DHT22;59977;48.782;9.190;2024-01-15T14:25:11;2.50;99.90
24632;DHT22;59977;48.782;9.190;2024-01-15T14:27:36;2.50;99.90
24632;DHT22;59977;48.782;9.190;2024-01-15T14:30:03;2.80;99.90
24632;DHT22;59977;48.782;9.190;2024-01-15T14:32:29;2.50;99.90
24632;DHT22;59977;48.782;9.190;2024-01-15T14:34:54;2.50;99.90
24632;DHT22;59977;48.782;9.190;2024-01-15T14:37:22;2.50;99.90
24632;DHT22;59977;48.782;9.190;2024-01-15T14:39:47;2.50;99.90
24632;DHT22;59977;48.782;9.190;2024-01-15T14:42:13;2.50;99.90
24632;DHT22;59977;48.782;9.190;2024-01-15T14:44:38;2.50;99.90
24632;DHT22;59977;48.782;9.190;2024-01-15T14:47:06;2.40;99.90
24632;DHT22;59977;48.782;9.190;2024-01-15T14:49:33;2.40;99.90
24632;DHT22;59977;48.782;9.190;2024-01-15T14:51:59;2.40;99.90
24632;DHT22;59977;48.782;9.190;2024-01-15T14:54:24;2.40;99.90
24632;DHT22;59977;48.782;9.190;2024-01-15T14:56:51;2.30;99.90
24632;DHT22;59977;48.782;9.190;2024-01-15T14:59:17;2.30;99.90
24632;DHT22;59977;48.782;9.190;2024-01-15T15:01:42;2.20;99.90
24632;DHT22;59977;48.782;9.190;2024-01-15T15:04:08;2.20;99.90
24632;DHT22;59977;48.782;9.190;2024-01-15T15:06:36;2.10;99.90
24632;DHT22;59977;48.782;9.190;2024-01-15T15:09:02;2.10;99.90
24632;DHT22;59977;48.782;9.190;2024-01-15T15:11:34;2.10;99.90
24632;DHT22;59977;48.782;9.190;2024-01-15T15:14:00;2.10;99.90
24632;DHT22;59977;48.782;9.190;2024-01-15T15:16:26;2.10;99.90
24632;DHT22;59977;48.782;9.190;2024-01-15T15:18:52;2.10;99.90
24632;DHT22;59977;48.782;9.190;2024-01-15T15:21:18;2.10;99.90
24632;DHT22;59977;48.782;9.190;2024-01-15T15:23:44;2.10;99.90
24632;DHT22;59977;48.782;9.190;2024-01-15T15:26:09;2.40;99.90
24632;DHT22;59977;48.782;9.190;2024-01-15T15:28:35;2.50;99.90
24632;DHT22;59977;48.782;9.190;2024-01-15T15:31:02;2.10;99.90
24632;DHT22;59977;48.782;9.190;2024-01-15T15:33:28;2.10;99.90
24632;DHT22;59977;48.782;9.190;2024-01-15T15:35:54;2.30;99.90
24632;DHT22;59977;48.782;9.190;2024-01-15T15:38:20;2.10;99.90
24632;DHT22;59977;48.782;9.190;2024-01-15T15:40:45;2.20;99.90
24632;DHT22;59977;48.782;9.190;2024-01-15T15:43:11;2.20;99.90
24632;DHT22;59977;48.782;9.190;2024-01-15T15:45:37;2.20;99.90
24632;DHT22;59977;48.782;9.190;2024-01-15T15:48:02;2.10;99.90